Time;durP1;ratioP1;P1;durP2;ratioP2;P2;SDS_P1;SDS_P2;PMS_P1;PMS_P2;Temp;Humidity;BMP_temperature;BMP_pressure;BME280_temperature;BME280_humidity;BME280_pressure;Samples;Min_cycle;Max_cycle;Signal;HPM_P1;HPM_P2
2022/02/04 00:23:10;;;;;;;14.52;4.22;;;;;;;8.27;100.00;100207.94;4903428;29;20044;-72
2022/02/04 00:26:01;;;;;;;12.90;5.07;;;;;;;8.23;100.00;100212.41;4903285;29;20123;-72
2022/02/04 00:31:05;;;;;;;13.65;4.57;;;;;;;8.32;100.00;100215.72;4916736;29;20044;-72
2022/02/04 00:33:33;;;;;;;16.37;4.77;;;;;;;8.27;100.00;100215.97;4906673;29;20036;-70
2022/02/04 00:36:11;;;;;;;17.75;5.38;;;;;;;8.31;100.00;100218.75;4914370;29;20390;-72
2022/02/04 00:38:40;;;;;;;14.95;4.45;;;;;;;8.29;100.00;100213.72;4913924;29;20042;-71
2022/02/04 00:41:09;;;;;;;14.23;4.88;;;;;;;8.23;100.00;100215.09;4915030;29;20066;-71
2022/02/04 00:43:36;;;;;;;14.68;4.38;;;;;;;8.25;100.00;100204.81;4898846;29;20044;-72
2022/02/04 00:51:26;;;;;;;14.32;5.40;;;;;;;8.28;100.00;100208.72;4925356;29;20050;-71
2022/02/04 00:56:44;;;;;;;12.55;4.80;;;;;;;8.28;100.00;100198.78;4907182;29;20044;-73
2022/02/04 01:26:18;;;;;;;15.63;5.82;;;;;;;8.13;100.00;100202.22;4916271;29;20039;-72
2022/02/04 01:28:47;;;;;;;14.30;4.70;;;;;;;8.15;100.00;100199.97;4916369;29;20146;-73
2022/02/04 01:31:19;;;;;;;18.27;5.72;;;;;;;8.11;100.00;100217.88;4905455;29;20725;-72
2022/02/04 01:33:46;;;;;;;15.05;5.53;;;;;;;8.07;100.00;100209.00;4927596;29;20040;-73
2022/02/04 01:36:13;;;;;;;17.05;5.30;;;;;;;8.10;100.00;100211.75;4910439;29;20067;-73
2022/02/04 01:38:38;;;;;;;20.75;5.18;;;;;;;8.20;100.00;100216.59;4902141;29;20032;-72
2022/02/04 01:41:05;;;;;;;19.42;6.72;;;;;;;8.05;100.00;100211.25;4908595;29;20039;-72
2022/02/04 01:43:30;;;;;;;12.60;4.47;;;;;;;8.09;100.00;100210.19;4914380;29;20043;-72
2022/02/04 01:46:02;;;;;;;14.30;4.95;;;;;;;8.12;100.00;100198.00;4939276;29;20408;-72
2022/02/04 01:48:27;;;;;;;13.80;4.13;;;;;;;8.16;100.00;100206.91;4907041;29;20036;-72
2022/02/04 01:50:53;;;;;;;14.85;4.82;;;;;;;8.10;100.00;100202.94;4907838;29;20040;-72
2022/02/04 01:53:21;;;;;;;16.13;4.00;;;;;;;8.16;100.00;100198.84;4916313;29;20033;-73
2022/02/04 01:55:48;;;;;;;17.95;4.60;;;;;;;8.10;100.00;100192.19;4915879;29;20066;-73
2022/02/04 01:58:15;;;;;;;21.55;5.05;;;;;;;8.16;100.00;100193.50;4906944;29;20036;-72
2022/02/04 02:00:41;;;;;;;19.80;5.93;;;;;;;8.14;100.00;100203.78;4912267;29;20040;-73
2022/02/04 02:03:08;;;;;;;14.93;4.57;;;;;;;8.14;100.00;100199.22;4930456;29;20458;-73
2022/02/04 02:05:34;;;;;;;12.70;4.22;;;;;;;8.18;100.00;100199.28;4910923;29;20032;-72
2022/02/04 02:08:07;;;;;;;18.88;4.80;;;;;;;8.15;100.00;100197.28;4910869;29;20359;-73
2022/02/04 02:10:33;;;;;;;17.95;4.72;;;;;;;8.14;100.00;100190.38;4923088;29;20044;-73
2022/02/04 02:13:22;;;;;;;16.52;4.28;;;;;;;8.16;100.00;100196.19;4930887;29;20033;-72
2022/02/04 02:48:57;;;;;;;18.90;5.43;;;;;;;8.08;100.00;100173.00;4924767;29;20044;-73
2022/02/04 02:54:05;;;;;;;18.73;5.45;;;;;;;8.10;100.00;100182.25;4911776;29;20040;-71
2022/02/04 02:59:13;;;;;;;19.55;5.88;;;;;;;8.02;100.00;100169.03;4906336;29;20040;-71
2022/02/04 03:01:44;;;;;;;14.68;5.95;;;;;;;8.02;100.00;100163.66;4915428;29;20046;-72
2022/02/04 03:04:13;;;;;;;21.05;6.10;;;;;;;8.06;100.00;100170.69;4918473;29;20553;-72
2022/02/04 03:06:39;;;;;;;15.88;5.07;;;;;;;8.07;100.00;100174.16;4908662;29;20043;-73
2022/02/04 03:09:05;;;;;;;19.00;5.65;;;;;;;8.04;100.00;100162.22;4904716;29;20035;-73
2022/02/04 03:11:30;;;;;;;19.55;5.32;;;;;;;8.12;100.00;100163.91;4902949;29;20040;-71
2022/02/04 03:13:56;;;;;;;20.58;5.10;;;;;;;8.15;100.00;100154.38;4930469;29;20060;-73
2022/02/04 03:16:23;;;;;;;21.38;5.38;;;;;;;8.11;100.00;100161.56;4906549;29;20036;-73
2022/02/04 03:18:51;;;;;;;15.38;5.15;;;;;;;8.14;100.00;100158.19;4915902;29;20040;-73
2022/02/04 03:21:26;;;;;;;19.45;6.20;;;;;;;8.12;100.00;100157.78;4907770;29;20044;-72
2022/02/04 03:23:56;;;;;;;17.27;6.43;;;;;;;8.16;100.00;100154.06;4915541;29;20111;-73
2022/02/04 03:28:48;;;;;;;22.13;5.75;;;;;;;8.31;100.00;100151.69;4916135;29;20044;-73
2022/02/04 03:31:14;;;;;;;23.38;6.03;;;;;;;8.34;100.00;100146.41;4905216;29;20120;-73
2022/02/04 03:33:42;;;;;;;19.38;6.43;;;;;;;8.41;100.00;100143.09;4913151;29;20036;-73
2022/02/04 03:36:07;;;;;;;19.10;6.00;;;;;;;8.34;100.00;100149.09;4915211;29;20031;-72
2022/02/04 03:38:33;;;;;;;19.48;6.15;;;;;;;8.23;100.00;100144.59;4905750;29;20040;-72
2022/02/04 03:40:58;;;;;;;17.08;6.15;;;;;;;8.23;100.00;100136.56;4906520;29;20686;-73
2022/02/04 03:43:23;;;;;;;21.30;6.63;;;;;;;8.15;100.00;100140.97;4920188;29;20027;-72
2022/02/04 03:45:49;;;;;;;21.52;6.07;;;;;;;8.11;100.00;100134.75;4911950;29;20043;-72
2022/02/04 03:48:15;;;;;;;19.88;5.75;;;;;;;8.14;100.00;100134.06;4901299;29;20486;-73
2022/02/04 03:50:40;;;;;;;21.02;7.03;;;;;;;8.14;100.00;100140.22;4922866;29;20090;-71
2022/02/04 03:53:13;;;;;;;18.05;6.45;;;;;;;8.17;100.00;100128.78;4900212;29;20043;-72
2022/02/04 03:55:39;;;;;;;24.08;7.30;;;;;;;8.18;100.00;100135.72;4900273;29;20032;-73
2022/02/04 03:58:05;;;;;;;18.63;6.20;;;;;;;8.28;100.00;100137.09;4904733;29;20111;-73
2022/02/04 04:00:30;;;;;;;23.67;7.68;;;;;;;8.16;100.00;100135.28;4925095;29;20047;-72
2022/02/04 04:02:56;;;;;;;23.65;7.30;;;;;;;8.13;100.00;100135.19;4931495;29;20028;-72
2022/02/04 04:05:21;;;;;;;21.48;7.65;;;;;;;8.13;100.00;100130.59;4901851;29;20119;-73
2022/02/04 04:07:49;;;;;;;18.13;6.03;;;;;;;8.18;100.00;100122.31;4920933;29;20042;-72
2022/02/04 04:10:24;;;;;;;16.95;5.70;;;;;;;8.19;100.00;100113.13;4911395;29;20466;-72
2022/02/04 04:12:52;;;;;;;22.25;7.47;;;;;;;8.14;100.00;100110.72;4906736;29;20040;-72
2022/02/04 04:15:17;;;;;;;19.67;5.95;;;;;;;8.31;100.00;100116.81;4902996;29;20028;-72
2022/02/04 04:17:44;;;;;;;17.10;5.80;;;;;;;8.23;100.00;100110.50;4902982;29;20515;-73
2022/02/04 04:20:17;;;;;;;20.42;7.43;;;;;;;8.09;100.00;100126.31;4915226;29;20126;-71
2022/02/04 04:22:43;;;;;;;25.05;6.68;;;;;;;8.17;100.00;100117.25;4905813;29;20055;-73
2022/02/04 04:25:10;;;;;;;13.90;5.57;;;;;;;8.24;100.00;100122.78;4910417;29;20031;-73
2022/02/04 04:27:37;;;;;;;16.65;6.22;;;;;;;8.17;100.00;100119.94;4921813;29;20118;-72
2022/02/04 04:30:03;;;;;;;18.83;6.03;;;;;;;8.07;100.00;100117.84;4911152;29;20036;-72
2022/02/04 04:32:29;;;;;;;21.48;7.07;;;;;;;8.10;100.00;100117.91;4915774;29;20047;-72
2022/02/04 04:34:55;;;;;;;22.30;6.28;;;;;;;8.12;100.00;100114.88;4912340;29;20032;-72
2022/02/04 04:37:21;;;;;;;18.65;6.72;;;;;;;8.16;100.00;100108.47;4904966;29;20152;-72
2022/02/04 05:29:04;;;;;;;19.02;5.93;;;;;;;8.00;100.00;100069.41;4911202;29;20469;-73
2022/02/04 05:31:29;;;;;;;13.63;4.53;;;;;;;7.95;100.00;100069.69;4905040;29;20036;-72
2022/02/04 05:33:55;;;;;;;20.60;7.22;;;;;;;7.89;100.00;100066.53;4907043;29;20043;-72
2022/02/04 05:36:21;;;;;;;19.95;5.90;;;;;;;7.96;100.00;100063.19;4911557;29;20405;-71
2022/02/04 05:38:46;;;;;;;20.98;5.78;;;;;;;7.98;100.00;100063.63;4917374;29;20044;-71
2022/02/04 05:41:18;;;;;;;17.75;5.35;;;;;;;7.97;100.00;100068.22;4903278;29;20051;-72
2022/02/04 05:43:45;;;;;;;17.67;5.93;;;;;;;7.92;100.00;100071.16;4904640;29;20070;-72
2022/02/04 05:46:17;;;;;;;19.70;6.18;;;;;;;7.94;100.00;100065.44;4901140;29;20048;-72
2022/02/04 05:48:48;;;;;;;17.88;5.75;;;;;;;7.95;100.00;100072.38;4893849;29;20044;-73
2022/02/04 05:53:53;;;;;;;14.10;5.13;;;;;;;7.92;100.00;100057.75;4901719;29;20036;-72
2022/02/04 05:59:25;;;;;;;18.13;6.80;;;;;;;7.81;100.00;100047.94;4904309;29;20040;-73
2022/02/04 06:04:55;;;;;;;15.65;4.88;;;;;;;7.86;100.00;100042.31;4899627;29;20076;-72
2022/02/04 06:14:50;;;;;;;16.33;6.18;;;;;;;7.84;100.00;100031.19;4910593;29;20839;-73
2022/02/04 06:22:47;;;;;;;15.45;6.05;;;;;;;7.91;100.00;100026.75;4896585;29;20040;-72
2022/02/04 06:25:13;;;;;;;12.50;5.03;;;;;;;7.93;100.00;100029.84;4903886;29;20493;-72
2022/02/04 06:27:38;;;;;;;21.65;6.40;;;;;;;7.89;100.00;100028.22;4901420;29;20040;-72
2022/02/04 06:30:05;;;;;;;18.02;6.05;;;;;;;7.88;100.00;100024.75;4913046;29;20044;-72
2022/02/04 06:32:33;;;;;;;18.08;5.68;;;;;;;7.86;100.00;100023.53;4892659;29;20076;-73
2022/02/04 06:34:59;;;;;;;16.50;6.38;;;;;;;7.96;100.00;100014.94;4897663;29;20817;-71
2022/02/04 06:37:26;;;;;;;15.02;5.95;;;;;;;8.09;100.00;100014.44;4909953;29;20051;-71
2022/02/04 06:39:52;;;;;;;16.05;5.35;;;;;;;8.12;100.00;100013.75;4902523;29;20040;-72
2022/02/04 06:42:25;;;;;;;19.40;6.60;;;;;;;8.15;100.00;100012.25;4899833;29;20051;-73
2022/02/04 06:44:51;;;;;;;14.73;5.38;;;;;;;8.05;100.00;100020.88;4900219;29;20491;-72
2022/02/04 06:47:17;;;;;;;17.60;6.75;;;;;;;7.99;100.00;100022.28;4902490;29;20051;-72
2022/02/04 06:49:44;;;;;;;17.02;6.38;;;;;;;7.98;100.00;100013.47;4904200;29;20035;-71
2022/02/04 06:52:09;;;;;;;21.23;6.50;;;;;;;7.92;100.00;100016.78;4901902;29;20103;-70
2022/02/04 06:54:35;;;;;;;21.20;5.90;;;;;;;7.97;100.00;100025.34;4903925;29;20631;-70
2022/02/04 06:57:00;;;;;;;20.08;5.15;;;;;;;8.07;100.00;100026.69;4898902;29;20063;-72
2022/02/04 06:59:26;;;;;;;13.32;5.25;;;;;;;8.17;100.00;100018.03;4904553;29;20047;-72
2022/02/04 07:01:51;;;;;;;16.55;5.85;;;;;;;8.17;100.00;100018.03;4895743;29;20557;-72
2022/02/04 07:04:17;;;;;;;15.70;5.63;;;;;;;8.18;100.00;100024.97;4898051;29;20401;-71
2022/02/04 07:06:51;;;;;;;16.58;5.75;;;;;;;8.13;100.00;100014.50;4914461;29;20032;-71
2022/02/04 07:09:29;;;;;;;17.52;5.07;;;;;;;8.09;100.00;100014.44;4903767;29;20032;-71
2022/02/04 07:14:47;;;;;;;20.98;6.25;;;;;;;8.02;100.00;100008.19;4903169;29;20462;-72
2022/02/04 07:17:23;;;;;;;16.42;5.70;;;;;;;8.09;100.00;100016.38;4903456;29;20084;-72
2022/02/04 07:19:49;;;;;;;20.50;5.57;;;;;;;8.03;100.00;100013.19;4903102;29;20040;-71
2022/02/04 07:22:30;;;;;;;18.05;6.32;;;;;;;8.20;100.00;100014.66;4898747;29;20032;-71
2022/02/04 07:24:59;;;;;;;15.82;4.95;;;;;;;8.12;100.00;100013.75;4899729;29;20502;-72
2022/02/04 07:27:29;;;;;;;19.85;5.88;;;;;;;8.08;100.00;100020.97;4902163;29;20742;-72
2022/02/04 07:29:56;;;;;;;19.45;5.93;;;;;;;7.96;100.00;100025.66;4916982;29;20044;-70
2022/02/04 07:32:29;;;;;;;14.60;5.20;;;;;;;8.02;100.00;100013.53;4902626;29;20040;-72
2022/02/04 07:42:51;;;;;;;14.18;5.38;;;;;;;8.16;100.00;100008.47;4902493;29;20036;-71
2022/02/04 07:45:17;;;;;;;16.60;6.28;;;;;;;8.08;100.00;100006.75;4901493;29;20038;-71
2022/02/04 07:47:42;;;;;;;16.45;5.55;;;;;;;8.03;100.00;100002.44;4900510;29;20055;-72
2022/02/04 07:50:08;;;;;;;14.38;5.53;;;;;;;8.11;100.00;99992.63;4899978;29;20058;-71
2022/02/04 07:52:34;;;;;;;12.88;5.47;;;;;;;8.27;100.00;99992.59;4901676;29;20040;-72
2022/02/04 07:55:00;;;;;;;17.77;6.25;;;;;;;8.11;100.00;99985.38;4900170;29;20454;-71
2022/02/04 07:57:26;;;;;;;13.23;6.60;;;;;;;8.16;100.00;99982.44;4903472;29;20508;-70
2022/02/04 07:59:52;;;;;;;20.23;6.85;;;;;;;7.99;100.00;99982.09;4904517;29;20028;-72
2022/02/04 08:02:18;;;;;;;17.98;6.63;;;;;;;7.98;100.00;99983.19;4912946;29;20485;-71
2022/02/04 08:04:46;;;;;;;19.73;5.93;;;;;;;8.15;100.00;99980.84;4914251;29;20056;-72
2022/02/04 08:07:15;;;;;;;16.95;4.85;;;;;;;8.13;100.00;99977.75;4900859;29;20044;-72
2022/02/04 08:10:03;;;;;;;16.27;5.88;;;;;;;8.19;100.00;99975.56;4898938;29;20103;-70
2022/02/04 08:12:47;;;;;;;18.25;6.38;;;;;;;8.23;100.00;99973.72;4895273;29;20757;-72
2022/02/04 08:15:37;;;;;;;19.40;6.65;;;;;;;8.37;100.00;99976.69;4901189;29;20051;-71
2022/02/04 08:20:41;;;;;;;23.33;7.10;;;;;;;8.31;100.00;99967.38;4898060;29;20060;-72
2022/02/04 08:36:53;;;;;;;19.45;6.38;;;;;;;8.38;100.00;99946.03;4901486;29;20055;-72
2022/02/04 08:55:20;;;;;;;19.40;6.07;;;;;;;8.47;100.00;99945.81;4900320;29;20040;-70
2022/02/04 09:02:54;;;;;;;21.33;6.88;;;;;;;8.39;100.00;99928.84;4901249;29;20379;-72
2022/02/04 09:05:25;;;;;;;19.25;6.57;;;;;;;8.45;100.00;99934.66;4898619;29;20083;-72
2022/02/04 09:08:08;;;;;;;18.10;6.82;;;;;;;8.44;100.00;99939.25;4905175;29;20048;-70
2022/02/04 09:10:35;;;;;;;16.50;6.07;;;;;;;8.53;100.00;99930.97;4900470;29;20118;-71
2022/02/04 09:23:20;;;;;;;18.00;5.63;;;;;;;8.68;100.00;99936.22;4899621;29;20374;-72
2022/02/04 09:25:46;;;;;;;13.25;5.93;;;;;;;8.65;100.00;99928.88;4904824;29;21262;-71
2022/02/04 09:28:11;;;;;;;18.85;7.47;;;;;;;8.64;100.00;99918.50;4905554;29;20040;-71
2022/02/04 09:30:37;;;;;;;13.75;6.22;;;;;;;8.72;100.00;99925.53;4903915;29;20061;-71
2022/02/04 09:33:02;;;;;;;16.33;5.75;;;;;;;8.75;100.00;99914.84;4920189;29;20040;-70
2022/02/04 09:35:28;;;;;;;19.10;7.05;;;;;;;8.77;100.00;99914.47;4903697;29;20036;-71
2022/02/04 09:37:55;;;;;;;15.90;6.72;;;;;;;8.93;100.00;99913.22;4901710;29;20024;-70
2022/02/04 09:40:21;;;;;;;15.38;6.35;;;;;;;8.89;100.00;99895.50;4903729;29;20490;-72
2022/02/04 09:42:47;;;;;;;17.98;7.32;;;;;;;8.92;100.00;99911.66;4905225;29;20035;-70
2022/02/04 09:45:15;;;;;;;15.27;6.35;;;;;;;8.83;100.00;99908.44;4903938;29;20770;-73
2022/02/04 09:47:47;;;;;;;18.95;6.55;;;;;;;8.81;100.00;99899.97;4902509;29;20579;-70
2022/02/04 09:50:17;;;;;;;16.55;7.10;;;;;;;8.82;100.00;99909.59;4901086;29;20082;-73
2022/02/04 10:17:57;;;;;;;14.18;5.40;;;;;;;9.13;100.00;99886.25;4901356;29;20095;-71
2022/02/04 10:20:23;;;;;;;;;;;;;;;8.94;100.00;99873.72;4904045;29;20039;-71
2022/02/04 10:22:49;;;;;;;12.80;4.50;;;;;;;9.01;100.00;99874.59;4902044;29;20377;-72
2022/02/04 10:25:16;;;;;;;18.20;6.65;;;;;;;9.00;100.00;99870.34;4903362;29;20051;-71
2022/02/04 10:27:44;;;;;;;15.45;6.95;;;;;;;9.16;100.00;99862.09;4902685;29;20039;-71
2022/02/04 10:30:12;;;;;;;13.90;6.18;;;;;;;9.17;100.00;99862.88;4901454;29;20111;-71
2022/02/04 10:32:49;;;;;;;15.23;6.63;;;;;;;9.12;100.00;99858.59;4903661;29;20036;-73
2022/02/04 10:35:20;;;;;;;14.65;5.78;;;;;;;9.27;100.00;99841.50;4902430;29;20118;-73
2022/02/04 10:38:14;;;;;;;18.83;6.40;;;;;;;9.29;100.00;99836.56;4903616;29;20043;-72
2022/02/04 10:40:55;;;;;;;11.05;5.15;;;;;;;9.43;100.00;99828.66;4899583;29;20208;-71
2022/02/04 10:49:01;;;;;;;11.70;5.43;;;;;;;9.19;100.00;99820.31;4900961;29;20052;-72
2022/02/04 11:34:15;;;;;;;15.93;6.32;;;;;;;9.78;100.00;99731.47;4900906;29;20043;-71
2022/02/04 11:37:13;;;;;;;11.82;5.50;;;;;;;10.06;100.00;99739.78;4898102;29;20122;-70
2022/02/04 11:48:48;;;;;;;8.88;4.55;;;;;;;10.26;97.82;99724.94;4900317;29;20044;-71
2022/02/04 11:54:35;;;;;;;8.98;4.50;;;;;;;10.09;97.82;99704.03;4903252;29;20144;-71
2022/02/04 11:57:04;;;;;;;12.77;4.47;;;;;;;10.02;98.28;99699.41;4899148;29;20044;-72
2022/02/04 11:59:41;;;;;;;8.77;4.57;;;;;;;10.03;98.36;99697.47;4902278;29;20125;-68
2022/02/04 12:02:29;;;;;;;6.00;3.50;;;;;;;9.88;97.89;99699.31;4900978;29;20039;-68
2022/02/04 12:05:11;;;;;;;7.32;3.97;;;;;;;9.91;98.11;99681.66;4898384;29;20028;-68
2022/02/04 12:07:41;;;;;;;9.73;4.15;;;;;;;9.94;97.95;99680.91;4899060;29;20055;-71
2022/02/04 12:10:12;;;;;;;7.13;3.63;;;;;;;9.95;97.51;99666.28;4900982;29;20116;-70
2022/02/04 12:12:54;;;;;;;;;;;;;;;10.19;97.10;99656.88;4899437;29;20127;-69
2022/02/04 12:15:28;;;;;;;7.28;3.65;;;;;;;10.15;95.81;99653.38;4902533;29;19919;-71
2022/02/04 12:17:59;;;;;;;8.27;4.22;;;;;;;10.31;95.91;99659.25;4899373;29;20667;-71
2022/02/04 12:20:46;;;;;;;8.82;3.83;;;;;;;10.33;95.26;99646.97;4902025;29;20083;-71
2022/02/04 12:23:29;;;;;;;7.43;3.55;;;;;;;10.59;95.69;99635.13;4912123;29;20036;-71
2022/02/04 12:26:06;;;;;;;7.25;3.65;;;;;;;10.72;95.18;99634.41;4899601;29;20040;-72
2022/02/04 12:29:12;;;;;;;6.40;3.50;;;;;;;10.88;94.50;99632.16;4894334;29;20028;-72
2022/02/04 12:31:42;;;;;;;8.65;3.72;;;;;;;11.01;92.21;99640.66;4891350;29;20051;-71
2022/02/04 12:34:14;;;;;;;7.28;3.47;;;;;;;10.95;92.62;99636.00;4910212;29;20486;-72
2022/02/04 12:36:40;;;;;;;;;;;;;;;10.70;92.32;99638.66;4900172;29;20044;-72
2022/02/04 12:39:06;;;;;;;6.05;3.83;;;;;;;10.62;92.60;99629.00;4901645;29;19923;-71
2022/02/04 12:41:34;;;;;;;6.47;3.35;;;;;;;10.39;93.43;99612.38;4900056;29;20040;-71
2022/02/04 12:44:05;;;;;;;6.85;3.45;;;;;;;10.33;93.43;99609.28;4893861;29;20409;-74
2022/02/04 12:46:31;;;;;;;6.90;3.40;;;;;;;10.45;92.87;99616.25;4899215;29;20414;-71
2022/02/04 12:49:00;;;;;;;6.55;3.05;;;;;;;10.43;93.57;99599.72;4903018;29;20482;-71
2022/02/04 12:51:31;;;;;;;11.27;3.58;;;;;;;10.31;93.29;99608.91;4897351;29;20059;-71
2022/02/04 12:53:57;;;;;;;4.28;2.63;;;;;;;10.14;93.67;99606.13;4898832;29;20040;-71
2022/02/04 12:56:35;;;;;;;4.40;2.88;;;;;;;10.27;93.42;99596.56;4898036;29;20553;-70
2022/02/04 13:02:23;;;;;;;4.30;2.72;;;;;;;10.30;94.38;99595.81;4891293;29;20032;-73
2022/02/04 13:10:06;;;;;;;7.65;3.67;;;;;;;10.16;96.45;99580.41;4893983;29;20040;-70
2022/02/04 13:12:47;;;;;;;3.72;2.80;;;;;;;10.22;96.54;99573.47;4896400;29;20056;-71
2022/02/04 13:15:13;;;;;;;7.97;2.80;;;;;;;10.17;96.78;99576.53;4895502;29;20684;-71
2022/02/04 13:17:38;;;;;;;5.28;2.80;;;;;;;10.13;96.43;99572.28;4910729;29;20095;-75
2022/02/04 13:20:05;;;;;;;6.22;3.00;;;;;;;10.03;95.82;99569.16;4896990;29;20127;-73
2022/02/04 13:22:31;;;;;;;4.00;2.58;;;;;;;9.97;95.62;99567.19;4893391;29;20112;-71
2022/02/04 13:25:06;;;;;;;3.50;2.50;;;;;;;9.99;95.58;99564.91;4897440;29;20039;-72
2022/02/04 13:27:31;;;;;;;3.08;2.17;;;;;;;10.08;95.57;99562.66;4912235;29;20040;-73
2022/02/04 13:29:57;;;;;;;2.63;1.85;;;;;;;10.25;94.96;99545.06;4897713;29;20035;-72
2022/02/04 13:32:24;;;;;;;3.45;1.92;;;;;;;10.21;94.57;99544.28;4897221;29;20028;-70
2022/02/04 13:34:50;;;;;;;3.50;2.15;;;;;;;10.27;94.29;99551.59;4894207;29;20552;-69
2022/02/04 13:37:30;;;;;;;4.18;2.30;;;;;;;10.16;94.97;99545.41;4898833;29;20032;-70
2022/02/04 13:40:05;;;;;;;5.07;1.77;;;;;;;10.21;95.30;99536.97;4911841;29;20036;-69
2022/02/04 13:42:45;;;;;;;4.85;2.38;;;;;;;10.20;95.14;99531.97;4893953;29;20036;-71
2022/02/04 13:45:36;;;;;;;6.07;2.65;;;;;;;10.13;95.21;99529.25;4912023;29;20024;-69
2022/02/04 13:48:15;;;;;;;3.63;2.50;;;;;;;10.14;95.66;99517.34;4893792;29;20040;-70
2022/02/04 13:51:02;;;;;;;4.88;2.00;;;;;;;10.15;95.06;99514.28;4892170;29;20047;-70
2022/02/04 13:53:36;;;;;;;5.05;2.40;;;;;;;10.27;95.10;99513.16;4900097;29;20498;-72
2022/02/04 13:56:29;;;;;;;2.92;1.85;;;;;;;10.04;95.02;99510.75;4899405;29;20131;-72
2022/02/04 13:59:15;;;;;;;4.43;2.22;;;;;;;9.99;96.00;99521.88;4898930;29;20040;-69
2022/02/04 14:01:52;;;;;;;3.08;2.00;;;;;;;9.96;96.02;99495.75;4903984;29;20048;-70
2022/02/04 14:04:18;;;;;;;4.68;1.92;;;;;;;10.01;96.59;99493.44;4917327;29;20036;-69
2022/02/04 14:06:43;;;;;;;5.75;2.40;;;;;;;10.03;96.45;99499.22;4895982;29;20091;-70
2022/02/04 14:09:17;;;;;;;3.83;1.95;;;;;;;10.04;96.59;99494.63;4900279;29;20040;-69
2022/02/04 14:11:43;;;;;;;2.92;1.73;;;;;;;10.17;95.72;99487.75;4899565;29;20658;-69
2022/02/04 14:14:20;;;;;;;2.40;1.80;;;;;;;10.00;96.32;99473.09;4902249;29;20028;-70
2022/02/04 14:16:56;;;;;;;1.85;1.35;;;;;;;10.15;96.21;99479.31;4901860;29;20043;-73
2022/02/04 14:19:26;;;;;;;2.25;1.60;;;;;;;10.23;95.33;99467.41;4899246;29;20111;-69
2022/02/04 14:21:52;;;;;;;3.38;1.92;;;;;;;10.24;95.01;99482.38;4900704;29;20036;-70
2022/02/04 14:24:19;;;;;;;2.70;1.67;;;;;;;10.20;94.68;99472.78;4893006;29;20131;-72
2022/02/04 14:26:47;;;;;;;3.75;1.55;;;;;;;10.14;94.88;99463.56;4894543;29;20040;-70
2022/02/04 14:29:23;;;;;;;2.83;1.70;;;;;;;10.24;94.21;99465.50;4898272;29;20043;-71
2022/02/04 14:32:00;;;;;;;2.17;1.83;;;;;;;10.18;93.52;99454.31;4900324;29;20040;-69
2022/02/04 14:53:38;;;;;;;3.33;1.58;;;;;;;10.12;92.31;99444.34;4901219;29;20599;-69
2022/02/04 14:59:12;;;;;;;1.85;1.38;;;;;;;9.87;93.98;99439.63;4899960;29;20053;-70
2022/02/04 15:01:36;;;;;;;;;;;;;;;9.94;93.86;99436.97;4900225;29;20036;-70
2022/02/04 15:06:37;;;;;;;1.92;1.30;;;;;;;9.92;93.19;99435.78;4896716;29;20048;-71
2022/02/04 15:09:09;;;;;;;2.78;1.58;;;;;;;9.98;93.40;99428.91;4899952;29;20047;-70
2022/02/04 15:11:42;;;;;;;3.95;2.08;;;;;;;10.05;93.32;99428.91;4898675;29;20051;-70
2022/02/04 15:14:08;;;;;;;1.80;1.33;;;;;;;9.98;93.55;99416.22;4900248;29;20051;-69
2022/02/04 15:16:35;;;;;;;3.35;1.70;;;;;;;9.98;93.54;99415.47;4897016;29;20047;-70
2022/02/04 15:19:00;;;;;;;2.88;1.48;;;;;;;9.88;94.29;99408.13;4898769;29;20086;-70
2022/02/04 15:21:26;;;;;;;4.07;1.58;;;;;;;10.09;93.44;99402.00;4900000;29;20494;-73
2022/02/04 15:23:53;;;;;;;2.28;1.63;;;;;;;10.07;93.26;99397.03;4901257;29;20039;-70
2022/02/04 15:26:26;;;;;;;2.88;1.75;;;;;;;10.13;93.59;99390.16;4898953;29;20040;-71
2022/02/04 15:28:58;;;;;;;2.53;1.70;;;;;;;9.96;93.29;99374.72;4901686;29;20040;-70
2022/02/04 15:33:53;;;;;;;2.67;1.42;;;;;;;9.90;94.71;99371.66;4899728;29;20756;-71
2022/02/04 15:36:32;;;;;;;2.50;1.55;;;;;;;9.85;94.44;99371.25;4902411;29;20043;-70
2022/02/04 15:39:00;;;;;;;1.70;1.25;;;;;;;10.03;93.81;99358.59;4904746;29;20044;-70
2022/02/04 15:41:28;;;;;;;2.92;1.40;;;;;;;9.95;94.43;99365.09;4902434;29;20130;-70
2022/02/04 15:43:58;;;;;;;2.28;1.50;;;;;;;9.92;94.67;99366.66;4915074;29;20032;-70
2022/02/04 15:56:52;;;;;;;1.55;1.30;;;;;;;9.85;94.20;99330.94;4902523;29;20043;-70
2022/02/04 16:04:23;;;;;;;2.28;1.52;;;;;;;9.77;95.52;99311.34;4903836;29;20470;-71
2022/02/04 16:06:50;;;;;;;2.40;1.63;;;;;;;9.70;95.75;99315.91;4901375;29;20028;-71
2022/02/04 16:09:18;;;;;;;2.40;1.60;;;;;;;9.65;95.90;99319.75;4900565;29;20039;-71
2022/02/04 16:12:31;;;;;;;1.40;1.17;;;;;;;9.64;96.56;99309.38;4900876;29;20116;-72
2022/02/04 16:17:11;;;;;;;2.10;1.50;;;;;;;9.79;95.98;99294.81;4900989;29;20599;-72
2022/02/04 16:19:54;;;;;;;2.78;1.85;;;;;;;9.79;96.34;99300.19;4901060;29;20032;-71
2022/02/04 16:22:33;;;;;;;3.58;1.73;;;;;;;9.58;97.85;99284.78;4900528;29;20043;-71
2022/02/04 16:25:15;;;;;;;1.90;1.70;;;;;;;9.61;98.34;99294.78;4900234;29;20040;-72
2022/02/04 16:30:08;;;;;;;3.88;2.05;;;;;;;9.52;99.18;99285.56;4902237;29;20119;-71
2022/02/04 16:32:33;;;;;;;4.03;2.40;;;;;;;9.70;98.61;99275.59;4914231;29;20043;-71
2022/02/04 16:35:02;;;;;;;4.00;2.08;;;;;;;9.53;98.94;99271.72;4911538;29;20541;-71
2022/02/04 16:37:35;;;;;;;2.65;1.65;;;;;;;9.63;98.99;99262.94;4894454;29;20056;-72
2022/02/04 16:40:09;;;;;;;3.15;1.67;;;;;;;9.70;98.58;99264.84;4896898;29;20039;-72
2022/02/04 16:42:35;;;;;;;3.35;2.05;;;;;;;9.69;99.00;99264.09;4896636;29;20044;-72
2022/02/04 16:45:00;;;;;;;3.85;1.75;;;;;;;9.45;99.90;99270.19;4896949;29;20417;-71
2022/02/04 16:47:26;;;;;;;2.17;1.40;;;;;;;9.42;100.00;99262.13;4900995;29;20035;-72
2022/02/04 16:49:52;;;;;;;2.60;1.67;;;;;;;9.43;99.74;99263.63;4900741;29;20036;-71
2022/02/04 16:52:17;;;;;;;2.00;1.33;;;;;;;9.48;98.56;99249.84;4897171;29;20050;-73
2022/02/04 16:54:43;;;;;;;1.30;1.17;;;;;;;9.38;99.48;99258.66;4890925;29;20044;-72
2022/02/04 16:57:08;;;;;;;2.35;1.33;;;;;;;9.44;98.62;99251.75;4915372;29;20040;-72
2022/02/04 16:59:35;;;;;;;1.50;1.05;;;;;;;9.40;98.11;99248.28;4903160;29;20044;-72
2022/02/04 17:02:01;;;;;;;1.42;0.90;;;;;;;9.32;98.46;99252.88;4900648;29;20054;-71
2022/02/04 17:04:26;;;;;;;0.98;0.82;;;;;;;9.30;97.75;99244.44;4893471;29;20024;-71
2022/02/04 17:07:09;;;;;;;1.58;1.00;;;;;;;9.38;98.10;99250.59;4900280;29;20486;-71
2022/02/04 17:09:39;;;;;;;1.58;1.17;;;;;;;9.39;97.38;99252.16;4900481;29;20040;-71
2022/02/04 17:12:08;;;;;;;5.53;1.20;;;;;;;9.33;97.64;99248.28;4911338;29;20516;-71
2022/02/04 17:14:35;;;;;;;3.00;1.40;;;;;;;9.32;97.27;99250.19;4914804;29;20095;-71
2022/02/04 17:17:01;;;;;;;1.27;1.17;;;;;;;9.30;97.69;99235.59;4899016;29;20047;-71
2022/02/04 17:19:32;;;;;;;1.75;1.17;;;;;;;9.41;97.85;99234.47;4901838;29;20048;-71
2022/02/04 17:22:04;;;;;;;1.42;1.17;;;;;;;9.38;97.74;99240.63;4897537;29;20636;-72
2022/02/04 17:24:30;;;;;;;;;;;;;;;9.38;98.45;99243.31;4900730;29;20047;-71
2022/02/04 17:26:55;;;;;;;2.90;1.42;;;;;;;9.47;98.52;99240.22;4896335;29;19926;-69
2022/02/04 17:29:21;;;;;;;3.67;2.03;;;;;;;9.51;98.34;99243.69;4899724;29;20064;-71
2022/02/04 17:31:47;;;;;;;2.08;1.60;;;;;;;9.32;99.14;99242.13;4896792;29;20116;-72
2022/02/04 17:34:13;;;;;;;4.10;1.88;;;;;;;9.20;100.00;99236.34;4901053;29;20039;-69
2022/02/04 17:36:38;;;;;;;2.00;1.70;;;;;;;9.31;100.00;99245.22;4905292;29;20568;-71
2022/02/04 17:39:16;;;;;;;3.38;2.05;;;;;;;9.15;100.00;99242.09;4911771;29;20064;-71
2022/02/04 17:41:43;;;;;;;3.47;1.63;;;;;;;9.52;100.00;99299.00;4904582;29;20485;-71
2022/02/04 17:44:12;;;;;;;1.45;0.80;;;;;;;9.33;98.61;99313.50;4900822;29;20035;-71
2022/02/04 17:46:37;;;;;;;0.63;0.32;;;;;;;9.12;95.97;99318.81;4904634;29;20032;-71
2022/02/04 17:49:16;;;;;;;0.52;0.52;;;;;;;8.76;96.89;99312.50;4906078;29;20051;-71
2022/02/04 17:51:59;;;;;;;0.40;0.40;;;;;;;8.49;97.06;99326.50;4902228;29;20139;-71
2022/02/04 17:54:46;;;;;;;0.20;0.20;;;;;;;8.27;98.88;99333.63;4905069;29;20043;-71